createdAt,value
2022-09-14T00:00:58.480Z,97613.69
2022-09-14T00:02:11.204Z,97615.81
2022-09-14T00:03:14.822Z,97610.31
2022-09-14T00:04:20.617Z,97610.94
2022-09-14T00:05:23.473Z,97612.25
2022-09-14T00:06:27.222Z,97609.50
2022-09-14T00:07:30.153Z,97612.47
2022-09-14T00:08:33.558Z,97613.88
2022-09-14T00:09:36.581Z,97608.97
2022-09-14T00:10:41.679Z,97606.81
2022-09-14T00:11:44.750Z,97602.72
2022-09-14T00:12:47.698Z,97598.53
2022-09-14T00:13:51.313Z,97598.53
2022-09-14T00:14:54.328Z,97602.63
2022-09-14T00:15:57.336Z,97602.56
2022-09-14T00:17:00.537Z,97596.41
2022-09-14T00:18:04.010Z,97601.84
2022-09-14T00:19:14.106Z,97606.63
2022-09-14T00:20:17.050Z,97598.25
2022-09-14T00:21:20.458Z,97602.34
2022-09-14T00:22:23.439Z,97592.72
2022-09-14T00:23:26.302Z,97592.03
2022-09-14T00:24:32.949Z,97594.16
2022-09-14T00:25:35.878Z,97593.44
2022-09-14T00:26:38.889Z,97588.62
2022-09-14T00:27:41.764Z,97584.44
2022-09-14T00:28:47.578Z,97588.56
2022-09-14T00:29:50.594Z,97588.03
2022-09-14T00:30:53.500Z,97584.44
2022-09-14T00:31:57.211Z,97592.66
2022-09-14T00:33:00.150Z,97589.69
2022-09-14T00:34:03.603Z,97595.13
2022-09-14T00:35:07.278Z,97590.19
2022-09-14T00:36:24.715Z,97596.34
2022-09-14T00:37:27.613Z,97597.78
2022-09-14T00:38:30.407Z,97595.00
2022-09-14T00:39:33.473Z,97591.53
2022-09-14T00:40:37.582Z,97596.34
2022-09-14T00:41:43.257Z,97590.81
2022-09-14T00:42:46.195Z,97596.44
2022-09-14T00:43:59.479Z,97592.25
2022-09-14T00:45:13.413Z,97597.88
2022-09-14T00:46:16.357Z,97594.09
2022-09-14T00:47:19.657Z,97593.28
2022-09-14T00:48:29.908Z,97589.19
2022-09-14T00:49:39.985Z,97590.63
2022-09-14T00:50:43.152Z,97589.31
2022-09-14T00:51:49.929Z,97585.09
2022-09-14T00:52:52.938Z,97583.69
2022-09-14T00:53:56.140Z,97582.34
2022-09-14T00:55:05.743Z,97583.59
2022-09-14T00:56:08.784Z,97582.06
2022-09-14T00:57:12.006Z,97579.22
2022-09-14T00:58:14.977Z,97579.22
2022-09-14T00:59:23.575Z,97582.75
2022-09-14T01:00:28.802Z,97575.09
2022-09-14T01:01:35.731Z,97584.81
2022-09-14T01:02:40.044Z,97580.91
2022-09-14T01:03:43.252Z,97579.50
2022-09-14T01:04:47.662Z,97574.59
2022-09-14T01:06:02.662Z,97571.00
2022-09-14T01:07:28.066Z,97583.47
2022-09-14T01:08:59.746Z,97577.97
2022-09-14T01:10:24.122Z,97578.69
2022-09-14T01:11:57.691Z,97580.84
2022-09-14T01:13:12.887Z,97587.16
2022-09-14T01:14:45.438Z,97574.06
2022-09-14T01:16:13.145Z,97576.66
2022-09-14T01:17:35.603Z,97577.87
2022-09-14T01:18:45.499Z,97563.44
2022-09-14T01:20:14.849Z,97570.41
2022-09-14T01:21:27.227Z,97579.41
2022-09-14T01:22:43.360Z,97576.53
2022-09-14T01:24:07.698Z,97573.19
2022-09-14T01:25:28.175Z,97564.97
2022-09-14T01:26:37.144Z,97571.94
2022-09-14T01:27:44.277Z,97565.69
2022-09-14T01:28:59.102Z,97567.03
2022-09-14T01:30:21.679Z,97561.41
2022-09-14T01:31:34.844Z,97565.50
2022-09-14T01:32:57.742Z,97566.81
2022-09-14T01:34:26.984Z,97564.06
2022-09-14T01:35:35.909Z,97564.16
2022-09-14T01:36:43.462Z,97560.09
2022-09-14T01:37:55.966Z,97553.22
2022-09-14T01:39:01.878Z,97551.81
2022-09-14T01:40:13.270Z,97550.47
2022-09-14T01:41:21.114Z,97560.78
2022-09-14T01:42:27.027Z,97555.16
2022-09-14T01:43:36.851Z,97548.22
2022-09-14T01:44:46.140Z,97553.03
2022-09-14T01:45:59.804Z,97544.75
2022-09-14T01:47:11.172Z,97547.50
2022-09-14T01:48:17.240Z,97547.59
2022-09-14T01:49:33.210Z,97548.94
2022-09-14T01:50:41.937Z,97548.84
2022-09-14T01:52:20.104Z,97532.91
2022-09-14T01:53:31.373Z,97539.03
2022-09-14T01:54:46.410Z,97526.69
2022-09-14T01:55:57.002Z,97526.75
2022-09-14T01:57:24.719Z,97531.66
2022-09-14T01:58:51.406Z,97519.28
2022-09-14T02:00:07.668Z,97521.44
2022-09-14T02:01:15.598Z,97513.75
2022-09-14T02:02:22.269Z,97517.22
2022-09-14T02:03:37.562Z,97513.16
2022-09-14T02:04:50.790Z,97511.91
2022-09-14T02:07:06.678Z,97501.69
2022-09-14T02:08:09.588Z,97512.09
2022-09-14T02:09:16.257Z,97504.53
2022-09-14T02:10:19.261Z,97509.44
2022-09-14T02:11:22.239Z,97502.47
2022-09-14T02:12:26.126Z,97501.13
2022-09-14T02:13:29.627Z,97505.94
2022-09-14T02:14:32.769Z,97508.00
2022-09-14T02:15:37.329Z,97507.91
2022-09-14T02:16:44.024Z,97494.13
2022-09-14T02:17:48.149Z,97499.00
2022-09-14T02:18:51.247Z,97492.16
2022-09-14T02:19:58.243Z,97488.75
2022-09-14T02:21:25.999Z,97487.44
2022-09-14T02:22:30.808Z,97485.28
2022-09-14T02:23:36.441Z,97486.75
2022-09-14T02:24:39.830Z,97492.84
2022-09-14T02:25:42.655Z,97486.00
2022-09-14T02:26:50.216Z,97476.28
2022-09-14T02:27:53.127Z,97484.69
2022-09-14T02:28:57.547Z,97486.13
2022-09-14T02:30:00.625Z,97479.25
2022-09-14T02:31:43.348Z,97490.38
2022-09-14T02:33:08.584Z,97483.53
2022-09-14T02:34:27.714Z,97478.72
2022-09-14T02:35:47.645Z,97478.03
2022-09-14T02:36:56.845Z,97475.34
2022-09-14T02:38:11.493Z,97471.44
2022-09-14T02:39:48.176Z,97467.34
2022-09-14T02:40:56.691Z,97472.94
2022-09-14T02:42:22.466Z,97469.56
2022-09-14T02:43:44.172Z,97462.78
2022-09-14T02:44:54.448Z,97463.69
2022-09-14T02:46:06.773Z,97455.47
2022-09-14T02:47:33.422Z,97460.41
2022-09-14T02:48:50.273Z,97466.62
2022-09-14T02:50:00.800Z,97469.28
2022-09-14T02:51:09.542Z,97472.06
2022-09-14T02:53:05.266Z,97466.62
2022-09-14T02:54:19.313Z,97471.44
2022-09-14T02:55:26.312Z,97474.38
2022-09-14T02:56:29.407Z,97475.19
2022-09-14T02:57:32.462Z,97466.81
2022-09-14T02:58:44.395Z,97457.28
2022-09-14T02:59:47.507Z,97461.56
2022-09-14T03:00:51.042Z,97452.66
2022-09-14T03:01:54.189Z,97449.81
2022-09-14T03:02:57.521Z,97445.00
2022-09-14T03:04:00.404Z,97442.13
2022-09-14T03:05:03.432Z,97441.41
2022-09-14T03:06:07.051Z,97446.94
2022-09-14T03:07:10.033Z,97448.34
2022-09-14T03:08:13.657Z,97453.28
2022-09-14T03:10:24.297Z,97452.84
2022-09-14T03:11:27.200Z,97454.34
2022-09-14T03:12:30.038Z,97454.44
2022-09-14T03:13:35.228Z,97448.47
2022-09-14T03:14:38.123Z,97445.59
2022-09-14T03:15:41.274Z,97447.28
2022-09-14T03:16:44.345Z,97448.72
2022-09-14T03:17:49.130Z,97443.81
2022-09-14T03:18:52.270Z,97453.44
2022-09-14T03:19:55.185Z,97445.84
2022-09-14T03:21:09.865Z,97452.81
2022-09-14T03:22:12.780Z,97448.00
2022-09-14T03:23:15.782Z,97446.03
2022-09-14T03:24:18.753Z,97453.00
2022-09-14T03:25:23.623Z,97453.13
2022-09-14T03:26:29.911Z,97446.13
2022-09-14T03:27:32.948Z,97440.16
2022-09-14T03:28:36.347Z,97442.22
2022-09-14T03:29:39.170Z,97438.03
2022-09-14T03:30:42.006Z,97443.56
2022-09-14T03:31:44.949Z,97439.44
2022-09-14T03:32:48.306Z,97444.28
2022-09-14T03:33:57.031Z,97438.03
2022-09-14T03:35:00.279Z,97445.09
2022-09-14T03:36:24.237Z,97443.75
2022-09-14T03:37:33.815Z,97441.75
2022-09-14T03:38:36.773Z,97446.75
2022-09-14T03:39:39.688Z,97443.91
2022-09-14T03:40:42.571Z,97439.25
2022-09-14T03:41:45.389Z,97446.75
2022-09-14T03:42:50.827Z,97452.38
2022-09-14T03:43:53.733Z,97457.81
2022-09-14T03:44:57.013Z,97468.88
2022-09-14T03:46:06.146Z,97459.06
2022-09-14T03:47:09.184Z,97460.50
2022-09-14T03:48:15.713Z,97456.28
2022-09-14T03:49:18.758Z,97464.59
2022-09-14T03:50:21.762Z,97457.56
2022-09-14T03:51:24.864Z,97451.22
2022-09-14T03:52:27.789Z,97461.56
2022-09-14T03:53:31.461Z,97449.72
2022-09-14T03:54:34.325Z,97451.22
2022-09-14T03:55:37.242Z,97459.50
2022-09-14T03:56:40.892Z,97450.44
2022-09-14T03:57:43.780Z,97458.53
2022-09-14T03:58:47.951Z,97452.91
2022-09-14T03:59:51.344Z,97459.06
2022-09-14T04:00:54.186Z,97454.16
2022-09-14T04:01:57.140Z,97460.31
2022-09-14T04:03:01.124Z,97454.06
2022-09-14T04:04:04.471Z,97456.03
2022-09-14T04:05:07.938Z,97450.50
2022-09-14T04:06:11.510Z,97458.69
2022-09-14T04:07:20.418Z,97449.69
2022-09-14T04:08:24.054Z,97444.88
2022-09-14T04:09:27.040Z,97446.88
2022-09-14T04:10:29.919Z,97457.09
2022-09-14T04:11:34.519Z,97457.09
2022-09-14T04:12:38.731Z,97445.88
2022-09-14T04:13:42.255Z,97445.78
2022-09-14T04:14:45.144Z,97438.13
2022-09-14T04:16:00.528Z,97447.13
2022-09-14T04:17:04.346Z,97440.87
2022-09-14T04:18:07.221Z,97444.88
2022-09-14T04:19:12.169Z,97439.91
2022-09-14T04:20:15.344Z,97434.38
2022-09-14T04:21:22.202Z,97426.72
2022-09-14T04:22:25.169Z,97428.06
2022-09-14T04:23:28.543Z,97419.56
2022-09-14T04:24:31.733Z,97420.91
2022-09-14T04:25:34.598Z,97415.41
2022-09-14T04:26:37.470Z,97427.16
2022-09-14T04:27:40.332Z,97434.13
2022-09-14T04:28:43.751Z,97429.84
2022-09-14T04:29:50.382Z,97426.44
2022-09-14T04:31:01.504Z,97431.97
2022-09-14T04:32:04.608Z,97426.44
2022-09-14T04:33:07.458Z,97427.06
2022-09-14T04:34:13.932Z,97421.47
2022-09-14T04:35:16.981Z,97420.03
2022-09-14T04:36:23.918Z,97422.06
2022-09-14T04:37:26.731Z,97425.53
2022-09-14T04:38:31.483Z,97420.84
2022-09-14T04:39:34.534Z,97429.12
2022-09-14T04:40:41.713Z,97423.59
2022-09-14T04:41:44.541Z,97415.59
2022-09-14T04:42:47.636Z,97425.22
2022-09-14T04:43:53.808Z,97423.22
2022-09-14T04:44:57.241Z,97415.66
2022-09-14T04:46:05.141Z,97417.81
2022-09-14T04:47:08.002Z,97410.41
2022-09-14T04:48:10.877Z,97407.63
2022-09-14T04:49:14.446Z,97407.56
2022-09-14T04:50:17.405Z,97403.56
2022-09-14T04:51:26.983Z,97404.25
2022-09-14T04:52:29.881Z,97404.25
2022-09-14T04:53:37.154Z,97401.06
2022-09-14T04:54:39.961Z,97398.28
2022-09-14T04:55:42.996Z,97398.28
2022-09-14T04:56:46.285Z,97396.31
2022-09-14T04:57:49.631Z,97395.69
2022-09-14T04:58:55.349Z,97403.38
2022-09-14T04:59:58.277Z,97401.31
2022-09-14T05:01:08.921Z,97404.16
2022-09-14T05:02:11.902Z,97404.84
2022-09-14T05:03:14.960Z,97404.84
2022-09-14T05:04:17.984Z,97398.16
2022-09-14T05:05:20.857Z,97403.06
2022-09-14T05:06:27.030Z,97405.81
2022-09-14T05:07:33.937Z,97408.59
2022-09-14T05:08:38.868Z,97415.47
2022-09-14T05:09:42.180Z,97406.47
2022-09-14T05:10:45.210Z,97416.16
2022-09-14T05:11:50.099Z,97415.56
2022-09-14T05:12:53.047Z,97415.56
2022-09-14T05:14:02.829Z,97416.97
2022-09-14T05:15:06.634Z,97426.09
2022-09-14T05:16:24.223Z,97425.47
2022-09-14T05:17:27.258Z,97425.56
2022-09-14T05:18:34.273Z,97421.69
2022-09-14T05:19:37.192Z,97427.34
2022-09-14T05:20:40.083Z,97424.00
2022-09-14T05:21:43.399Z,97422.66
2022-09-14T05:22:50.506Z,97426.94
2022-09-14T05:23:55.390Z,97429.78
2022-09-14T05:24:58.249Z,97427.84
2022-09-14T05:26:01.569Z,97425.84
2022-09-14T05:27:04.582Z,97430.13
2022-09-14T05:28:10.849Z,97429.56
2022-09-14T05:29:15.510Z,97414.50
2022-09-14T05:30:18.457Z,97407.72
2022-09-14T05:31:22.436Z,97405.75
2022-09-14T05:32:25.334Z,97393.44
2022-09-14T05:33:28.296Z,97388.69
2022-09-14T05:34:31.140Z,97383.22
2022-09-14T05:35:34.012Z,97379.22
2022-09-14T05:36:38.348Z,97379.28
2022-09-14T05:37:41.284Z,97387.03
2022-09-14T05:38:44.365Z,97396.13
2022-09-14T05:39:47.175Z,97392.03
2022-09-14T05:40:55.169Z,97398.41
2022-09-14T05:41:58.117Z,97391.63
2022-09-14T05:43:00.971Z,97390.38
2022-09-14T05:44:04.408Z,97398.09
2022-09-14T05:45:07.759Z,97398.19
2022-09-14T05:46:13.302Z,97396.91
2022-09-14T05:47:16.280Z,97403.25
2022-09-14T05:48:19.440Z,97398.50
2022-09-14T05:49:22.298Z,97404.03
2022-09-14T05:50:25.269Z,97411.69
2022-09-14T05:51:28.626Z,97411.09
2022-09-14T05:52:31.476Z,97415.97
2022-09-14T05:53:34.857Z,97412.56
2022-09-14T05:54:40.843Z,97418.28
2022-09-14T05:55:43.797Z,97430.13
2022-09-14T05:56:47.340Z,97434.47
2022-09-14T05:57:51.277Z,97430.50
2022-09-14T05:58:59.779Z,97430.16
2022-09-14T06:00:03.854Z,97430.94
2022-09-14T06:01:08.113Z,97419.38
2022-09-14T06:02:14.410Z,97421.72
2022-09-14T06:03:19.430Z,97414.28
2022-09-14T06:04:22.325Z,97418.63
2022-09-14T06:05:28.445Z,97413.88
2022-09-14T06:06:34.443Z,97418.19
2022-09-14T06:07:37.789Z,97412.75
2022-09-14T06:08:41.126Z,97417.72
2022-09-14T06:09:44.299Z,97410.84
2022-09-14T06:10:47.167Z,97404.72
2022-09-14T06:11:50.401Z,97399.97
2022-09-14T06:12:55.471Z,97403.03
2022-09-14T06:13:58.911Z,97408.78
2022-09-14T06:15:05.869Z,97398.41
2022-09-14T06:16:14.781Z,97396.44
2022-09-14T06:17:17.833Z,97398.62
2022-09-14T06:18:20.728Z,97402.25
2022-09-14T06:19:23.766Z,97402.37
2022-09-14T06:20:30.043Z,97402.59
2022-09-14T06:21:35.515Z,97400.03
2022-09-14T06:22:38.414Z,97405.78
2022-09-14T06:23:41.725Z,97408.63
2022-09-14T06:24:44.634Z,97408.00
2022-09-14T06:25:47.620Z,97408.13
2022-09-14T06:26:50.458Z,97407.47
2022-09-14T06:27:56.057Z,97415.88
2022-09-14T06:28:59.103Z,97406.94
2022-09-14T06:30:01.999Z,97405.72
2022-09-14T06:31:08.052Z,97405.22
2022-09-14T06:32:10.939Z,97401.22
2022-09-14T06:33:13.877Z,97397.28
2022-09-14T06:34:16.883Z,97404.41
2022-09-14T06:35:20.007Z,97405.94
2022-09-14T06:36:25.261Z,97413.75
2022-09-14T06:37:28.315Z,97414.66
2022-09-14T06:38:31.557Z,97419.03
2022-09-14T06:39:37.860Z,97436.41
2022-09-14T06:40:52.439Z,97439.81
2022-09-14T06:41:55.393Z,97440.47
2022-09-14T06:43:02.472Z,97440.41
2022-09-14T06:44:05.415Z,97442.53
2022-09-14T06:45:10.834Z,97447.37
2022-09-14T06:46:19.253Z,97450.09
2022-09-14T06:47:22.479Z,97450.78
2022-09-14T06:48:26.091Z,97452.81
2022-09-14T06:49:29.247Z,97445.75
2022-09-14T06:50:32.078Z,97456.00
2022-09-14T06:51:39.014Z,97450.97
2022-09-14T06:52:42.000Z,97447.37
2022-09-14T06:53:45.897Z,97443.09
2022-09-14T06:54:48.824Z,97443.03
2022-09-14T06:55:52.588Z,97440.19
2022-09-14T06:56:55.637Z,97437.28
2022-09-14T06:57:58.691Z,97431.66
2022-09-14T06:59:04.026Z,97429.59
2022-09-14T07:00:07.549Z,97429.59
2022-09-14T07:01:16.541Z,97425.97
2022-09-14T07:02:19.862Z,97421.00
2022-09-14T07:03:23.174Z,97431.91
2022-09-14T07:04:26.150Z,97420.00
2022-09-14T07:05:31.264Z,97422.06
2022-09-14T07:06:43.728Z,97428.25
2022-09-14T07:07:46.757Z,97433.66
2022-09-14T07:08:51.290Z,97413.53
2022-09-14T07:09:54.353Z,97407.34
2022-09-14T07:10:59.131Z,97389.22
2022-09-14T07:12:02.277Z,97393.13
2022-09-14T07:13:05.120Z,97391.59
2022-09-14T07:14:08.824Z,97397.06
2022-09-14T07:15:11.858Z,97401.25
2022-09-14T07:16:15.731Z,97409.69
2022-09-14T07:17:18.793Z,97417.87
2022-09-14T07:18:26.832Z,97430.97
2022-09-14T07:19:29.927Z,97435.09
2022-09-14T07:20:34.112Z,97434.38
2022-09-14T07:21:37.411Z,97438.50
2022-09-14T07:22:40.336Z,97439.94
2022-09-14T07:23:45.150Z,97439.22
2022-09-14T07:24:48.001Z,97440.63
2022-09-14T07:26:04.719Z,97433.69
2022-09-14T07:27:07.713Z,97437.06
2022-09-14T07:28:10.826Z,97438.44
2022-09-14T07:29:19.584Z,97439.78
2022-09-14T07:30:30.770Z,97431.53
2022-09-14T07:31:46.422Z,97428.84
2022-09-14T07:32:49.257Z,97421.28
2022-09-14T07:33:58.256Z,97412.31
2022-09-14T07:35:02.585Z,97413.91
2022-09-14T07:36:11.071Z,97418.94
2022-09-14T07:37:13.894Z,97418.38
2022-09-14T07:38:26.955Z,97420.62
2022-09-14T07:39:38.678Z,97418.66
2022-09-14T07:40:47.822Z,97421.44
2022-09-14T07:41:50.666Z,97414.44
2022-09-14T07:42:57.568Z,97419.41
2022-09-14T07:44:05.846Z,97410.34
2022-09-14T07:45:12.066Z,97413.75
2022-09-14T07:46:14.904Z,97416.75
2022-09-14T07:47:17.868Z,97414.16
2022-09-14T07:48:21.290Z,97420.41
2022-09-14T07:49:24.734Z,97417.59
2022-09-14T07:50:27.974Z,97410.63
2022-09-14T07:51:31.997Z,97411.34
2022-09-14T07:52:38.616Z,97412.75
2022-09-14T07:53:43.084Z,97405.22
2022-09-14T07:54:46.006Z,97411.47
2022-09-14T07:55:48.904Z,97413.59
2022-09-14T07:56:51.778Z,97426.13
2022-09-14T07:57:56.841Z,97422.06
2022-09-14T07:59:23.856Z,97423.63
2022-09-14T08:00:27.533Z,97418.88
2022-09-14T08:01:30.956Z,97418.31
2022-09-14T08:02:34.920Z,97414.97
2022-09-14T08:03:40.508Z,97411.59
2022-09-14T08:04:43.731Z,97407.56
2022-09-14T08:05:46.619Z,97389.22
2022-09-14T08:06:49.653Z,97390.19
2022-09-14T08:07:58.619Z,97390.09
2022-09-14T08:09:06.742Z,97385.28
2022-09-14T08:10:09.799Z,97380.44
2022-09-14T08:11:16.045Z,97379.66
2022-09-14T08:12:19.048Z,97374.81
2022-09-14T08:13:22.014Z,97373.53
2022-09-14T08:14:29.034Z,97379.84
2022-09-14T08:15:33.582Z,97386.69
2022-09-14T08:16:41.040Z,97386.69
2022-09-14T08:17:44.206Z,97384.69
2022-09-14T08:18:48.231Z,97392.34
2022-09-14T08:19:52.442Z,97393.09
2022-09-14T08:20:55.535Z,97392.44
2022-09-14T08:21:58.479Z,97391.78
2022-09-14T08:23:01.396Z,97396.75
2022-09-14T08:24:04.587Z,97395.53
2022-09-14T08:25:09.017Z,97403.25
2022-09-14T08:26:16.796Z,97397.81
2022-09-14T08:27:19.690Z,97395.94
2022-09-14T08:28:22.567Z,97396.72
2022-09-14T08:29:26.275Z,97391.16
2022-09-14T08:30:29.218Z,97398.84
2022-09-14T08:31:40.706Z,97390.56
2022-09-14T08:32:43.573Z,97387.78
2022-09-14T08:33:51.384Z,97385.81
2022-09-14T08:34:54.282Z,97393.47
2022-09-14T08:35:58.433Z,97387.97
2022-09-14T08:37:01.413Z,97387.53
2022-09-14T08:38:04.335Z,97386.19
2022-09-14T08:39:10.921Z,97376.47
2022-09-14T08:40:17.959Z,97382.09
2022-09-14T08:41:31.035Z,97373.13
2022-09-14T08:42:34.111Z,97385.84
2022-09-14T08:43:39.142Z,97379.09
2022-09-14T08:44:47.314Z,97380.69
2022-09-14T08:45:53.432Z,97386.66
2022-09-14T08:47:04.391Z,97384.84
2022-09-14T08:48:26.077Z,97385.09
2022-09-14T08:49:35.635Z,97382.69
2022-09-14T08:50:39.139Z,97385.56
2022-09-14T08:51:43.301Z,97377.41
2022-09-14T08:52:53.558Z,97376.03
2022-09-14T08:53:59.794Z,97377.59
2022-09-14T08:55:17.740Z,97379.75
2022-09-14T08:56:27.548Z,97376.97
2022-09-14T08:57:47.604Z,97372.19
2022-09-14T08:59:09.072Z,97364.50
2022-09-14T09:00:18.171Z,97370.97
2022-09-14T09:01:50.920Z,97368.34
2022-09-14T09:03:20.585Z,97369.09
2022-09-14T09:04:41.327Z,97363.06
2022-09-14T09:06:15.968Z,97371.97
2022-09-14T09:07:33.174Z,97368.47
2022-09-14T09:08:56.982Z,97364.44
2022-09-14T09:10:00.285Z,97365.88
2022-09-14T09:11:05.905Z,97367.28
2022-09-14T09:12:15.257Z,97365.16
2022-09-14T09:13:22.833Z,97360.41
2022-09-14T09:14:33.923Z,97369.69
2022-09-14T09:15:45.333Z,97373.88
2022-09-14T09:16:52.407Z,97382.25
2022-09-14T09:18:01.547Z,97379.00
2022-09-14T09:19:12.106Z,97394.59
2022-09-14T09:20:21.215Z,97387.66
2022-09-14T09:21:31.350Z,97398.75
2022-09-14T09:23:15.064Z,97401.59
2022-09-14T09:24:26.519Z,97401.78
2022-09-14T09:25:39.667Z,97409.59
2022-09-14T09:26:43.301Z,97413.88
2022-09-14T09:27:47.947Z,97411.25
2022-09-14T09:28:56.958Z,97418.31
2022-09-14T09:29:59.885Z,97412.66
2022-09-14T09:31:05.753Z,97424.53
2022-09-14T09:32:17.696Z,97430.75
2022-09-14T09:33:24.892Z,97430.84
2022-09-14T09:34:30.746Z,97432.84
2022-09-14T09:35:34.109Z,97435.72
2022-09-14T09:36:41.185Z,97435.81
2022-09-14T09:37:44.050Z,97440.87
2022-09-14T09:38:47.027Z,97434.03
2022-09-14T09:39:50.675Z,97438.81
2022-09-14T09:41:07.881Z,97436.06
2022-09-14T09:42:22.878Z,97436.81
2022-09-14T09:43:45.786Z,97432.03
2022-09-14T09:45:03.628Z,97432.16
2022-09-14T09:46:09.617Z,97430.97
2022-09-14T09:47:12.655Z,97425.28
2022-09-14T09:48:18.953Z,97419.00
2022-09-14T09:49:37.475Z,97429.47
2022-09-14T09:50:54.973Z,97421.12
2022-09-14T09:52:08.053Z,97424.63
2022-09-14T09:53:17.481Z,97423.19
2022-09-14T09:54:26.655Z,97421.91
2022-09-14T09:55:38.618Z,97422.03
2022-09-14T09:56:58.148Z,97424.13
2022-09-14T09:58:28.146Z,97417.03
2022-09-14T09:59:38.745Z,97422.69
2022-09-14T10:00:42.197Z,97427.56
2022-09-14T10:01:45.281Z,97429.66
2022-09-14T10:02:48.999Z,97424.78
2022-09-14T10:04:20.079Z,97433.13
2022-09-14T10:05:31.938Z,97429.09
2022-09-14T10:06:46.773Z,97437.59
2022-09-14T10:07:49.559Z,97432.16
2022-09-14T10:08:55.399Z,97439.28
2022-09-14T10:10:11.594Z,97438.72
2022-09-14T10:11:36.822Z,97438.91
2022-09-14T10:12:51.137Z,97434.22
2022-09-14T10:13:57.094Z,97440.78
2022-09-14T10:15:15.891Z,97454.13
2022-09-14T10:16:26.963Z,97444.44
2022-09-14T10:17:29.919Z,97432.63
2022-09-14T10:18:33.012Z,97438.44
2022-09-14T10:19:37.243Z,97432.16
2022-09-14T10:21:07.305Z,97434.25
2022-09-14T10:22:26.790Z,97429.47
2022-09-14T10:23:33.687Z,97434.38
2022-09-14T10:24:38.250Z,97428.72
2022-09-14T10:25:41.278Z,97430.09
2022-09-14T10:26:44.397Z,97423.88
2022-09-14T10:28:01.244Z,97419.00
2022-09-14T10:29:39.230Z,97416.28
2022-09-14T10:30:49.561Z,97413.59
2022-09-14T10:31:55.432Z,97408.87
2022-09-14T10:33:05.242Z,97415.91
2022-09-14T10:34:19.647Z,97407.59
2022-09-14T10:35:26.109Z,97404.13
2022-09-14T10:36:30.785Z,97403.47
2022-09-14T10:37:40.695Z,97403.41
2022-09-14T10:39:16.406Z,97399.84
2022-09-14T10:40:25.519Z,97402.69
2022-09-14T10:41:53.287Z,97399.84
2022-09-14T10:42:56.270Z,97403.94
2022-09-14T10:44:33.983Z,97399.81
2022-09-14T10:45:44.213Z,97398.25
2022-09-14T10:47:10.313Z,97399.53
2022-09-14T10:48:27.170Z,97403.84
2022-09-14T10:49:48.534Z,97401.75
2022-09-14T10:51:26.825Z,97407.34
2022-09-14T10:53:02.718Z,97414.38
2022-09-14T10:54:15.770Z,97415.19
2022-09-14T10:55:44.192Z,97414.59
2022-09-14T10:57:13.428Z,97408.31
2022-09-14T10:58:25.043Z,97409.03
2022-09-14T10:59:46.463Z,97416.09
2022-09-14T11:01:11.833Z,97411.19
2022-09-14T11:02:20.490Z,97411.94
2022-09-14T11:03:42.776Z,97409.16
2022-09-14T11:05:08.265Z,97406.28
2022-09-14T11:06:16.220Z,97415.47
2022-09-14T11:07:52.676Z,97417.00
2022-09-14T11:09:20.634Z,97417.06
2022-09-14T11:10:41.440Z,97408.53
2022-09-14T11:12:08.370Z,97409.78
2022-09-14T11:13:17.274Z,97401.31
2022-09-14T11:14:34.791Z,97405.53
2022-09-14T11:15:56.527Z,97403.47
2022-09-14T11:17:16.786Z,97402.78
2022-09-14T11:18:34.724Z,97398.62
2022-09-14T11:20:04.549Z,97400.75
2022-09-14T11:22:12.132Z,97397.22
2022-09-14T11:23:36.128Z,97397.06
2022-09-14T11:24:45.219Z,97399.12
2022-09-14T11:26:03.077Z,97401.09
2022-09-14T11:27:39.239Z,97398.31
2022-09-14T11:28:52.911Z,97393.94
2022-09-14T11:30:06.351Z,97399.53
2022-09-14T11:31:24.783Z,97402.25
2022-09-14T11:32:33.099Z,97406.44
2022-09-14T11:33:38.617Z,97405.06
2022-09-14T11:35:11.244Z,97406.31
2022-09-14T11:36:20.670Z,97409.06
2022-09-14T11:37:35.620Z,97403.34
2022-09-14T11:38:50.105Z,97404.03
2022-09-14T11:40:07.263Z,97392.09
2022-09-14T11:41:39.969Z,97391.47
2022-09-14T11:43:10.095Z,97394.37
2022-09-14T11:44:21.101Z,97382.66
2022-09-14T11:45:31.134Z,97378.47
2022-09-14T11:46:42.776Z,97378.31
2022-09-14T11:47:58.292Z,97377.66
2022-09-14T11:49:43.374Z,97375.59
2022-09-14T11:50:47.755Z,97372.09
2022-09-14T11:51:57.546Z,97382.84
2022-09-14T11:53:14.830Z,97384.22
2022-09-14T11:54:20.156Z,97386.94
2022-09-14T11:55:23.542Z,97388.25
2022-09-14T11:56:30.958Z,97387.56
2022-09-14T11:57:37.109Z,97389.72
2022-09-14T11:58:40.331Z,97389.03
2022-09-14T11:59:44.718Z,97388.44
2022-09-14T12:00:53.191Z,97392.63
2022-09-14T12:02:00.019Z,97392.69
2022-09-14T12:03:05.884Z,97387.09
2022-09-14T12:04:15.842Z,97386.41
2022-09-14T12:05:18.699Z,97382.25
2022-09-14T12:06:34.110Z,97376.03
2022-09-14T12:07:39.937Z,97385.19
2022-09-14T12:08:42.892Z,97379.66
2022-09-14T12:09:46.486Z,97384.63
2022-09-14T12:11:26.445Z,97380.44
2022-09-14T12:12:32.522Z,97381.88
2022-09-14T12:13:36.827Z,97380.69
2022-09-14T12:14:44.303Z,97381.53
2022-09-14T12:15:47.319Z,97378.66
2022-09-14T12:17:38.324Z,97375.91
2022-09-14T12:18:42.649Z,97369.59
2022-09-14T12:19:48.398Z,97383.09
2022-09-14T12:21:02.013Z,97375.34
2022-09-14T12:22:27.581Z,97383.03
2022-09-14T12:23:43.695Z,97368.31
2022-09-14T12:24:58.589Z,97373.16
2022-09-14T12:26:11.793Z,97373.25
2022-09-14T12:27:22.119Z,97367.06
2022-09-14T12:28:35.734Z,97375.41
2022-09-14T12:29:38.921Z,97375.34
2022-09-14T12:30:41.817Z,97378.06
2022-09-14T12:31:45.174Z,97375.94
2022-09-14T12:32:49.474Z,97370.38
2022-09-14T12:34:17.724Z,97366.31
2022-09-14T12:35:32.667Z,97364.97
2022-09-14T12:36:38.407Z,97356.66
2022-09-14T12:37:41.739Z,97356.00
2022-09-14T12:38:50.883Z,97351.88
2022-09-14T12:40:32.607Z,97354.06
2022-09-14T12:41:35.519Z,97351.31
2022-09-14T12:42:38.430Z,97343.56
2022-09-14T12:43:41.364Z,97343.63
2022-09-14T12:44:44.376Z,97343.69
2022-09-14T12:45:50.936Z,97346.56
2022-09-14T12:46:55.149Z,97342.38
2022-09-14T12:47:58.165Z,97340.28
2022-09-14T12:49:04.542Z,97339.56
2022-09-14T12:50:20.231Z,97338.22
2022-09-14T12:51:31.962Z,97334.03
2022-09-14T12:52:37.727Z,97334.03
2022-09-14T12:53:44.189Z,97329.12
2022-09-14T12:55:15.373Z,97328.38
2022-09-14T12:56:27.455Z,97325.72
2022-09-14T12:57:46.021Z,97326.97
2022-09-14T12:59:01.245Z,97321.41
2022-09-14T13:00:12.137Z,97317.22
2022-09-14T13:01:39.842Z,97311.66
2022-09-14T13:03:20.054Z,97302.66
2022-09-14T13:04:28.211Z,97304.03
2022-09-14T13:05:34.611Z,97303.31
2022-09-14T13:06:44.502Z,97301.25
2022-09-14T13:07:47.497Z,97301.34
2022-09-14T13:08:54.977Z,97307.69
2022-09-14T13:09:59.915Z,97306.34
2022-09-14T13:11:03.050Z,97311.25
2022-09-14T13:12:10.341Z,97303.47
2022-09-14T13:13:21.126Z,97314.06
2022-09-14T13:14:30.930Z,97300.09
2022-09-14T13:15:37.277Z,97300.12
2022-09-14T13:16:44.773Z,97302.28
2022-09-14T13:18:04.716Z,97305.75
2022-09-14T13:19:26.853Z,97307.91
2022-09-14T13:20:32.392Z,97297.38
2022-09-14T13:21:35.353Z,97301.63
2022-09-14T13:22:43.344Z,97305.91
2022-09-14T13:23:46.585Z,97307.28
2022-09-14T13:24:50.180Z,97311.50
2022-09-14T13:25:53.915Z,97309.41
2022-09-14T13:27:00.200Z,97315.59
2022-09-14T13:28:13.846Z,97310.66
2022-09-14T13:29:16.765Z,97318.97
2022-09-14T13:30:22.726Z,97316.88
2022-09-14T13:31:39.809Z,97317.56